M V Trinidad — LAIY4 — position and weather

sailwx.info

Track history (hours):
 
Tides and Currents Weather Stations Pressure Air Temp Water Temp Dewpoint Dewpoint Depression Visibility Wind Speed Wind Dir Waves Ship Positions

M V Trinidad

Last reported at 2015-May-23 08:27 UTC. Time now 2015-May-23 08:52 UTC.
Position N 23°01' E 113°32'.

Length 189 m; draft 8.8 m.

Type: Cargo ship. MMSI: 257425411.

Date/timePositionNaut miles runAvg speedWind from/ knotsBaromVisibWave heightAir tempDewpointWater temp
2015-May-23 08:27N 23°01' E 113°32'0 0.0
2015-May-23 07:33N 23°01' E 113°32'0 0.0
2015-May-23 06:21N 23°01' E 113°32'0 0.0
2015-May-23 05:27N 23°01' E 113°32'0 0.0
2015-May-23 04:15N 23°01' E 113°32'0 0.0
2015-May-23 02:33N 23°01' E 113°32'0 0.0
2015-May-23 01:09N 23°01' E 113°32'0 0.0
2015-May-23 00:15N 23°01' E 113°32'0 0.0
2015-May-22 23:27N 23°01' E 113°32'0 0.0
2015-May-22 22:33N 23°01' E 113°32'0 0.0
2015-May-22 21:33N 23°01' E 113°32'0 0.0
2015-May-22 20:32N 23°01' E 113°32'0 0.0
2015-May-22 19:33N 23°01' E 113°32'0 0.0
2015-May-22 18:33N 23°01' E 113°32'0 0.0
2015-May-22 17:21N 23°01' E 113°32'0 0.0
2015-May-22 16:33N 23°01' E 113°32'0 0.0
2015-May-22 15:27N 23°01' E 113°32'0 0.0
2015-May-22 14:14N 23°01' E 113°32'0 0.0
2015-May-22 13:33N 23°01' E 113°32'5 4.8
2015-May-22 12:33N 22°56' E 113°33'9 8.3
2015-May-22 11:32N 22°48' E 113°37'2311.0
2015-May-22 09:26N 22°27' E 113°45'9 9.9
2015-May-22 08:32N 22°18' E 113°48'10 9.9
2015-May-22 07:33N 22°08' E 113°48'8 8.3
2015-May-22 06:33N 22°01' E 113°52'3 2.8
2015-May-22 05:33N 21°58' E 113°52'  
2015-May-18 08:32N 01°16' E 104°12'1313.3
2015-May-18 07:33N 01°16' E 103°59'2 1.8
2015-May-18 06:33N 01°16' E 103°57'0 0.0
2015-May-18 04:21N 01°16' E 103°57'0 0.1
2015-May-18 03:09N 01°16' E 103°57'0 0.2
2015-May-18 02:33N 01°16' E 103°57'0 0.1
2015-May-18 01:33N 01°16' E 103°57'0 0.1
2015-May-18 00:33N 01°16' E 103°57'0 0.0
2015-May-17 23:33N 01°16' E 103°57'0 0.0
2015-May-17 22:15N 01°16' E 103°57'0 0.0
2015-May-17 21:33N 01°16' E 103°57'0 0.1
2015-May-17 20:27N 01°16' E 103°57'0 0.1
2015-May-17 19:33N 01°16' E 103°57'0 0.0
2015-May-17 18:27N 01°16' E 103°57'0 0.1
2015-May-17 17:33N 01°16' E 103°57'2 2.2
2015-May-17 16:33N 01°15' E 103°59'9 8.8
2015-May-17 15:33N 01°11' E 103°51'6812.7
2015-May-17 10:10N 01°38' E 102°48'915.1
2015-May-17 09:33N 01°42' E 102°40'1514.7
2015-May-17 08:34N 01°48' E 102°27'2114.1
2015-May-17 07:03N 01°59' E 102°08'  
Track history (hours):
 
Tides and Currents Weather Stations Pressure Air Temp Water Temp Dewpoint Dewpoint Depression Visibility Wind Speed Wind Dir Waves Ship Positions

M V Trinidad

Last reported at 2015-May-23 08:27 UTC. Time now 2015-May-23 08:52 UTC.
Position N 23°01' E 113°32'.

Length 189 m; draft 8.8 m.

Type: Cargo ship. MMSI: 257425411.

Date/timePositionNaut miles runAvg speedWind from/ knotsBaromVisibWave heightAir tempDewpointWater temp
2015-May-23 08:27N 23°01' E 113°32'0 0.0
2015-May-23 07:33N 23°01' E 113°32'0 0.0
2015-May-23 06:21N 23°01' E 113°32'0 0.0
2015-May-23 05:27N 23°01' E 113°32'0 0.0
2015-May-23 04:15N 23°01' E 113°32'0 0.0
2015-May-23 02:33N 23°01' E 113°32'0 0.0
2015-May-23 01:09N 23°01' E 113°32'0 0.0
2015-May-23 00:15N 23°01' E 113°32'0 0.0
2015-May-22 23:27N 23°01' E 113°32'0 0.0
2015-May-22 22:33N 23°01' E 113°32'0 0.0
2015-May-22 21:33N 23°01' E 113°32'0 0.0
2015-May-22 20:32N 23°01' E 113°32'0 0.0
2015-May-22 19:33N 23°01' E 113°32'0 0.0
2015-May-22 18:33N 23°01' E 113°32'0 0.0
2015-May-22 17:21N 23°01' E 113°32'0 0.0
2015-May-22 16:33N 23°01' E 113°32'0 0.0
2015-May-22 15:27N 23°01' E 113°32'0 0.0
2015-May-22 14:14N 23°01' E 113°32'0 0.0
2015-May-22 13:33N 23°01' E 113°32'5 4.8
2015-May-22 12:33N 22°56' E 113°33'9 8.3
2015-May-22 11:32N 22°48' E 113°37'2311.0
2015-May-22 09:26N 22°27' E 113°45'9 9.9
2015-May-22 08:32N 22°18' E 113°48'10 9.9
2015-May-22 07:33N 22°08' E 113°48'8 8.3
2015-May-22 06:33N 22°01' E 113°52'3 2.8
2015-May-22 05:33N 21°58' E 113°52'  
2015-May-18 08:32N 01°16' E 104°12'1313.3
2015-May-18 07:33N 01°16' E 103°59'2 1.8
2015-May-18 06:33N 01°16' E 103°57'0 0.0
2015-May-18 04:21N 01°16' E 103°57'0 0.1
2015-May-18 03:09N 01°16' E 103°57'0 0.2
2015-May-18 02:33N 01°16' E 103°57'0 0.1
2015-May-18 01:33N 01°16' E 103°57'0 0.1
2015-May-18 00:33N 01°16' E 103°57'0 0.0
2015-May-17 23:33N 01°16' E 103°57'0 0.0
2015-May-17 22:15N 01°16' E 103°57'0 0.0
2015-May-17 21:33N 01°16' E 103°57'0 0.1
2015-May-17 20:27N 01°16' E 103°57'0 0.1
2015-May-17 19:33N 01°16' E 103°57'0 0.0
2015-May-17 18:27N 01°16' E 103°57'0 0.1
2015-May-17 17:33N 01°16' E 103°57'2 2.2
2015-May-17 16:33N 01°15' E 103°59'9 8.8
2015-May-17 15:33N 01°11' E 103°51'6812.7
2015-May-17 10:10N 01°38' E 102°48'915.1
2015-May-17 09:33N 01°42' E 102°40'1514.7
2015-May-17 08:34N 01°48' E 102°27'2114.1
2015-May-17 07:03N 01°59' E 102°08'  

Dump ship's entire track history